Portada
METAR-TAF:

METAR-TAF

Aeropuertos :

Nome, Alaska, Estados Unidos

latitud: 64-30-43N, longitud: 165-26-42W, altitud: 11 m

Observación

El informe se hizo hace 47 minutos, a las 23:53 UTC
Viento 9 kt del noreste
Temperatura -15°C
Humedad 65%
Presión 1009 hPa
Visibilidad: 16.1 km
Cielo despejado

METAR: PAOM 052353Z 05009KT 10SM CLR M15/M20 A2981 RMK AO2 SLP095 T11501200 11144 21172 58009

Hora: 15:40 (00:40 UTC)

Pronóstico

El informe se hizo hace 1 hora y 9 minutos, a las 23:31 UTC
Pronóstico válido del 06 a las 00 UTC al 06 a las 24 UTC
Viento 3 kt del norte
Visibilidad: 10 km
Cielo despejado

TAF: PAOM 052331Z 0600/0624 01003KT P6SM SKC

Observaciones y pronósticos meteorológicos de más de 4000 aeropuertos (mensajes METAR y TAF).

Los puntos amarillos y rojos representan las estaciones disponibles.

Ponga el ratón en el punto deseado para ver el nombre de la estación.

Haga clic para ver las observaciones y los pronósticos meteorológicos.

Para cambiar el mapa : haga clic en los botones verdes con una cruz de color negro para hacer un zoom, en el botón verde con un guión para alejar o en las flechas verdes para mapas adyacentes.


METAR-TAF: